18:15
Airports
History
Links
Donate
Help keep this website running!
PayPal
Bitcoin
This page is community maintained. The information is intended for PC simulator navigation or reference.
Always use approved charts for navigation.
LA42
CAPOZZOLI
CAPOZZOLI (LA42)
Baton Rouge, Louisiana, United States (70817)
(U)
Lat/Lng:30° 20' 55" N / 90° 55' 20" W
30.348611 / -90.922222
Elevation:24'ft / 7mMSL
ID / ICAO:LA42
Runways:1
Longest:18-36
Asphalt 933m / 3,062ft
Nearby Weather17:53 GMT 2017-10-19
Nearby weather at KBTR, Baton Rouge Metropolitan, Ryan located 18.6 nautical miles from LA42
Altimeter: 30.18
Visibility: 10.0 statute miles
Wind: 6 knots (from 040°)
Temp: 27°c / 81°f
Humidity: 54.4%

METAR: KBTR 191753Z 04006KT 10SM SCT031 27/17 A3018 RMK AO2 SLP218 T02720167 10272 20128 58012

(Powered by phpweather)
Nearby VORs <50NM
Nearby NDBs
Runway 18 / 36
Dimensions:933.4 x 6.1m 3062' x 20'ft
Surface:Asphalt
Runway 18 [A]Runway 36 [B]
Heading:173°TH 353°TH
Lat:
Lng:
30° 21' 10"N
90° 55' 21.99"W
30° 20' 40"N
90° 55' 18.01"W
User Notes and Comments
30° 20' 55" N / 90° 55' 20" W
Distance To
Airport ID:
Nearby Airports
(U) Don Babin - Private 5.5 NM
0LA2 SSW 206°
(R) Double H Ranch 8.8 NM
0LA1 SSW 200°
4 CAL MIRE 8.9 NM
1L50 SSE 164°
(U) Louisiana Rgnl 12.2 NM
L38 S 185°
4 Triangle J 16.3 NM
54LA NNW 334°
(R) Country Bend 17.0 NM
LS39 NNW 347°
(C) Baton Rouge Metropolitan, Ryan 18.6 NM
KBTR ( WX ) NW 313°
VFR Chart
Flight Planning at SkyVector.com